PBJ weather

Tavie Airport
Paama Island, Malampa, Vanuatu

Public forecast

Using degrees Celsius for public forecast. Weather courtesy of forecast.io.

Closest aviation weather report (METAR) to Tavie Airport

Closest report is Lamap Airport, 24.7 nm (45.7 km) W. Retrieved 2019/12/07 18:00 UTC (37 minutes ago):

NVSL 071800Z AUT0 08005KT //// // NCD ///// Q1012

Closest aviation forecast (TAF) to Tavie Airport

Closest forecast is Lamap Airport, 24.7 nm (45.7 km) W. Retrieved 2019/12/07 18:18 UTC (19 minutes ago):

TAF NVSL 071600Z 0718/0818 VRB02KT 9999 SCT020 BKN040 INTER 0718/0724 8000 SHRA FEW008 BKN018